Big Piney River (Missouri), Fort Leonard Wood (06930060)

StateMissouriLatestLow (425 cfs)
RiverBig Piney RiverRatingObservedEstimated
Updated2020-08-07 12:00 (50 minutes ago)Flood - The river is flooding. Obstacles can be treacherous or deadly. The river should be avoided at this stage for casual trips and definitely for the inexperienced. Trips should be attempted only with protective gear and equipment.Flood(none)3031
Discharge425 cfs (median: 202 cfs)High - The river is high and potentially dangerous, especially for the young and / or inexperienced. Normal stream obstacles are sometimes difficult to navigate. Extended distances can be attempted, but canoe travel may not be advisable.High(none)1449
Height2.44 feetGood - Conditions are ideal for a canoe or kayak. Boats typically will drag on fewer than one-quarter of riffles, if at all, and portages are unnecessary or rare. Normal float lengths can be attempted without a problem.Good(none)638
TrendFalling (falling over 24 hours)Low - River is low but can still be floated. Some riffles are okay but most come with significant dragging and might need a portage. Float lengths should be reduced to accommodate low flow, dragging, and portages.Low(none)385
USGSExternal icon USGS Site (External icon Google Maps)Poor - River is too low to float comfortably. Most or all riffles will drag or must be portaged and some obstacles (such as slick shelf rock) cause undue problems. Avoid the river at this stage for casual paddling trips.Poor(none)204

Trending Data

Plot Image

Trips for Big Piney River (Missouri), Fort Leonard Wood (06930060)

DateStartEndDistanceConditionDischargeHeightFishingDetails

A total of 0 rows are displayed.

Condition Descriptions

Fishing Conditions

Fish Species

Notes

Classic Trip List

The classic River Trips application is still available for use. It is updated with the new system using a data retrofit. It is no longer maintained. The original River Trips application is no longer updated (as of 1 Dec 2016) but can be checked for errors or for the condition of the data before it was converted to the new system.

Gauge Data Table

ObservationHeightDischargeMaximum
Discharge
Minimum
Discharge
Mean
Discharge
P05P10P20P25P50
(Median)
P75P80P90P95
2020-08-07 12:00 2.44 425 27000 (2013) 110 (2001) 1590 111 135 145 156 202 335 405 781 25700
2020-08-07 11:00 2.45 429 27000 (2013) 110 (2001) 1590 111 135 145 156 202 335 405 781 25700
2020-08-07 10:00 2.46 433 27000 (2013) 110 (2001) 1590 111 135 145 156 202 335 405 781 25700
2020-08-07 09:00 2.47 437 27000 (2013) 110 (2001) 1590 111 135 145 156 202 335 405 781 25700
2020-08-07 08:00 2.45 429 27000 (2013) 110 (2001) 1590 111 135 145 156 202 335 405 781 25700
2020-08-07 07:00 2.48 440 27000 (2013) 110 (2001) 1590 111 135 145 156 202 335 405 781 25700
2020-08-07 06:00 2.49 444 27000 (2013) 110 (2001) 1590 111 135 145 156 202 335 405 781 25700
2020-08-07 05:00 2.48 440 27000 (2013) 110 (2001) 1590 111 135 145 156 202 335 405 781 25700
2020-08-07 04:00 2.50 448 27000 (2013) 110 (2001) 1590 111 135 145 156 202 335 405 781 25700
2020-08-07 03:00 2.49 444 27000 (2013) 110 (2001) 1590 111 135 145 156 202 335 405 781 25700
2020-08-07 02:00 2.49 444 27000 (2013) 110 (2001) 1590 111 135 145 156 202 335 405 781 25700
2020-08-07 01:00 2.51 452 27000 (2013) 110 (2001) 1590 111 135 145 156 202 335 405 781 25700
2020-08-07 00:00 2.51 452 27000 (2013) 110 (2001) 1590 111 135 145 156 202 335 405 781 25700
2020-08-06 23:00 2.50 448 18900 (2013) 112 (2001) 1170 113 139 144 148 206 313 404 500 18000
2020-08-06 22:00 2.51 452 18900 (2013) 112 (2001) 1170 113 139 144 148 206 313 404 500 18000
2020-08-06 21:00 2.52 456 18900 (2013) 112 (2001) 1170 113 139 144 148 206 313 404 500 18000
2020-08-06 20:00 2.51 452 18900 (2013) 112 (2001) 1170 113 139 144 148 206 313 404 500 18000
2020-08-06 19:00 2.52 456 18900 (2013) 112 (2001) 1170 113 139 144 148 206 313 404 500 18000
2020-08-06 18:00 2.52 456 18900 (2013) 112 (2001) 1170 113 139 144 148 206 313 404 500 18000
2020-08-06 17:00 2.53 460 18900 (2013) 112 (2001) 1170 113 139 144 148 206 313 404 500 18000
2020-08-06 16:00 2.52 456 18900 (2013) 112 (2001) 1170 113 139 144 148 206 313 404 500 18000
2020-08-06 15:00 2.54 463 18900 (2013) 112 (2001) 1170 113 139 144 148 206 313 404 500 18000
2020-08-06 14:00 2.56 471 18900 (2013) 112 (2001) 1170 113 139 144 148 206 313 404 500 18000
2020-08-06 13:00 2.54 463 18900 (2013) 112 (2001) 1170 113 139 144 148 206 313 404 500 18000
2020-08-06 12:00 2.56 471 18900 (2013) 112 (2001) 1170 113 139 144 148 206 313 404 500 18000
2020-08-06 11:00 2.56 471 18900 (2013) 112 (2001) 1170 113 139 144 148 206 313 404 500 18000
2020-08-06 10:00 2.56 471 18900 (2013) 112 (2001) 1170 113 139 144 148 206 313 404 500 18000
2020-08-06 09:00 2.56 471 18900 (2013) 112 (2001) 1170 113 139 144 148 206 313 404 500 18000
2020-08-06 08:00 2.56 471 18900 (2013) 112 (2001) 1170 113 139 144 148 206 313 404 500 18000
2020-08-06 07:00 2.57 475 18900 (2013) 112 (2001) 1170 113 139 144 148 206 313 404 500 18000
2020-08-06 06:00 2.58 479 18900 (2013) 112 (2001) 1170 113 139 144 148 206 313 404 500 18000
2020-08-06 05:00 2.58 479 18900 (2013) 112 (2001) 1170 113 139 144 148 206 313 404 500 18000
2020-08-06 04:00 2.59 482 18900 (2013) 112 (2001) 1170 113 139 144 148 206 313 404 500 18000
2020-08-06 03:00 2.59 482 18900 (2013) 112 (2001) 1170 113 139 144 148 206 313 404 500 18000
2020-08-06 02:00 2.61 490 18900 (2013) 112 (2001) 1170 113 139 144 148 206 313 404 500 18000
2020-08-06 01:00 2.61 490 18900 (2013) 112 (2001) 1170 113 139 144 148 206 313 404 500 18000
2020-08-06 00:00 2.61 490 18900 (2013) 112 (2001) 1170 113 139 144 148 206 313 404 500 18000
2020-08-05 23:00 2.64 502 1240 (2013) 111 (2001) 278 112 138 146 148 213 295 319 500 1200
2020-08-05 22:00 2.63 498 1240 (2013) 111 (2001) 278 112 138 146 148 213 295 319 500 1200
2020-08-05 21:00 2.65 506 1240 (2013) 111 (2001) 278 112 138 146 148 213 295 319 500 1200
2020-08-05 20:00 2.65 506 1240 (2013) 111 (2001) 278 112 138 146 148 213 295 319 500 1200
2020-08-05 19:00 2.65 506 1240 (2013) 111 (2001) 278 112 138 146 148 213 295 319 500 1200
2020-08-05 18:00 2.65 506 1240 (2013) 111 (2001) 278 112 138 146 148 213 295 319 500 1200
2020-08-05 17:00 2.68 518 1240 (2013) 111 (2001) 278 112 138 146 148 213 295 319 500 1200
2020-08-05 16:00 2.68 518 1240 (2013) 111 (2001) 278 112 138 146 148 213 295 319 500 1200
2020-08-05 15:00 2.68 518 1240 (2013) 111 (2001) 278 112 138 146 148 213 295 319 500 1200
2020-08-05 14:00 2.71 531 1240 (2013) 111 (2001) 278 112 138 146 148 213 295 319 500 1200
2020-08-05 13:00 2.72 535 1240 (2013) 111 (2001) 278 112 138 146 148 213 295 319 500 1200
2020-08-05 12:00 2.72 535 1240 (2013) 111 (2001) 278 112 138 146 148 213 295 319 500 1200
2020-08-05 11:00 2.73 539 1240 (2013) 111 (2001) 278 112 138 146 148 213 295 319 500 1200
2020-08-05 10:00 2.75 548 1240 (2013) 111 (2001) 278 112 138 146 148 213 295 319 500 1200
2020-08-05 09:00 2.75 548 1240 (2013) 111 (2001) 278 112 138 146 148 213 295 319 500 1200
2020-08-05 08:00 2.78 560 1240 (2013) 111 (2001) 278 112 138 146 148 213 295 319 500 1200
2020-08-05 07:00 2.78 560 1240 (2013) 111 (2001) 278 112 138 146 148 213 295 319 500 1200
2020-08-05 06:00 2.79 565 1240 (2013) 111 (2001) 278 112 138 146 148 213 295 319 500 1200
2020-08-05 05:00 2.78 560 1240 (2013) 111 (2001) 278 112 138 146 148 213 295 319 500 1200
2020-08-05 04:00 2.83 582 1240 (2013) 111 (2001) 278 112 138 146 148 213 295 319 500 1200
2020-08-05 03:00 2.82 578 1240 (2013) 111 (2001) 278 112 138 146 148 213 295 319 500 1200
2020-08-05 02:00 2.84 587 1240 (2013) 111 (2001) 278 112 138 146 148 213 295 319 500 1200
2020-08-05 01:00 2.86 596 1240 (2013) 111 (2001) 278 112 138 146 148 213 295 319 500 1200
2020-08-05 00:00 2.88 605 1240 (2013) 111 (2001) 278 112 138 146 148 213 295 319 500 1200
2020-08-04 23:00 2.89 610 533 (2013) 115 (2001) 242 116 129 142 151 207 323 340 449 529
2020-08-04 22:00 2.88 605 533 (2013) 115 (2001) 242 116 129 142 151 207 323 340 449 529
2020-08-04 21:00 2.91 619 533 (2013) 115 (2001) 242 116 129 142 151 207 323 340 449 529
2020-08-04 20:00 2.90 614 533 (2013) 115 (2001) 242 116 129 142 151 207 323 340 449 529
2020-08-04 19:00 2.88 605 533 (2013) 115 (2001) 242 116 129 142 151 207 323 340 449 529
2020-08-04 18:00 2.86 596 533 (2013) 115 (2001) 242 116 129 142 151 207 323 340 449 529
2020-08-04 17:00 2.83 582 533 (2013) 115 (2001) 242 116 129 142 151 207 323 340 449 529
2020-08-04 16:00 2.76 552 533 (2013) 115 (2001) 242 116 129 142 151 207 323 340 449 529
2020-08-04 15:00 2.69 522 533 (2013) 115 (2001) 242 116 129 142 151 207 323 340 449 529
2020-08-04 14:00 2.66 510 533 (2013) 115 (2001) 242 116 129 142 151 207 323 340 449 529
2020-08-04 13:00 2.63 498 533 (2013) 115 (2001) 242 116 129 142 151 207 323 340 449 529
2020-08-04 12:00 2.60 486 533 (2013) 115 (2001) 242 116 129 142 151 207 323 340 449 529
2020-08-04 11:00 2.59 482 533 (2013) 115 (2001) 242 116 129 142 151 207 323 340 449 529
2020-08-04 10:00 2.60 486 533 (2013) 115 (2001) 242 116 129 142 151 207 323 340 449 529
2020-08-04 09:00 2.60 486 533 (2013) 115 (2001) 242 116 129 142 151 207 323 340 449 529
2020-08-04 08:00 2.62 494 533 (2013) 115 (2001) 242 116 129 142 151 207 323 340 449 529
2020-08-04 07:00 2.58 479 533 (2013) 115 (2001) 242 116 129 142 151 207 323 340 449 529
2020-08-04 06:00 2.62 494 533 (2013) 115 (2001) 242 116 129 142 151 207 323 340 449 529
2020-08-04 05:00 2.62 494 533 (2013) 115 (2001) 242 116 129 142 151 207 323 340 449 529
2020-08-04 04:00 2.60 486 533 (2013) 115 (2001) 242 116 129 142 151 207 323 340 449 529
2020-08-04 03:00 2.60 486 533 (2013) 115 (2001) 242 116 129 142 151 207 323 340 449 529
2020-08-04 02:00 2.60 486 533 (2013) 115 (2001) 242 116 129 142 151 207 323 340 449 529
2020-08-04 01:00 2.59 482 533 (2013) 115 (2001) 242 116 129 142 151 207 323 340 449 529
2020-08-04 00:00 2.58 479 533 (2013) 115 (2001) 242 116 129 142 151 207 323 340 449 529

A total of 85 rows are displayed for years 2000 through 2019.